LFSG/EPL METAR and TAF weather

Enter ICAO airport designator
Station Type Date Time Source
LFSG METAR 2022/06/28 15:00 UTC NOAA

LFSG 281500Z AUTO 01009KT CAVOK 25/13 Q1017


Station Type Date Time Source
LFSG Decoded METAR 2022/06/28 15:00 UTC NOAA

Station name not available
Jun 28, 2022 - 11:00 AM EDT / 2022.06.28 1500 UTC
Wind: from the N (010 degrees) at 10 MPH (9 KT):0
Visibility: greater than 7 mile(s):0
Temperature: 77 F (25 C)
Dew Point: 55 F (13 C)
Relative Humidity: 47%
Pressure (altimeter): 30.03 in. Hg (1017 hPa)
ob: LFSG 281500Z AUTO 01009KT CAVOK 25/13 Q1017
cycle: 15

Station Type Date Time Source
LFSG TAF UTC NOAA

Error!

Example: see airport list